Stanley, ID

8:01 AM MDT on September 02, 2014 (GMT -0600)
Challis | Change Station
CLOSE
Current Station
Airport
Location: Challis,
Elevation: 5072 ft
Nearby Weather Stations

Elev 5072 ft 44.52 °N, 114.21 °W | Updated 6 minutes ago

Clear
Clear
47 °F
Feels Like 47 °F
N
0
Wind Variable Wind from North

Today
High -- | Low -- °F
--% Chance of Precip.
Yesterday
High -- | Low -- °F
Precip. -- in
7:03 AM 8:13 PM
First Quarter, 51% visible
Pressure 29.95 in
Visibility 10.0 miles
Clouds Clear
Dew Point 36 °F
Humidity 66%
Rainfall 0.00 in
Snow Depth 0 in
UV 0 out of 12
Pollen 7.60 out of 12
Air Quality Not available.
Flu Activity Not available.
METAR KLLJ 021355Z AUTO 00000KT 10SM CLR 08/02 A3007 RMK AO2 SLP140 T00830022

More Conditions Fewer Conditions

Pressure 29.95 in
Visibility 10.0 miles
Clouds Clear
Dew Point 36 °F
Humidity 66%
Rainfall 0.00 in
Snow Depth 0 in
UV 0 out of 12
Pollen 7.60 out of 12
Air Quality Not available.
Flu Activity Not available.
METAR KLLJ 021355Z AUTO 00000KT 10SM CLR 08/02 A3007 RMK AO2 SLP140 T00830022

More Conditions Fewer Conditions

10-Day Weather Forecast

Almanac

Astronomy

Sep. 02, 2014 Rise Set
Actual Time 7:03 AM MDT 8:13 PM MDT
Civil Twilight 6:33 AM MDT 8:43 PM MDT
Nautical Twilight 5:57 AM MDT 9:19 PM MDT
Astronomical Twilight 5:19 AM MDT 9:56 PM MDT
Moon 3:07 PM MDT 12:04 AM MDT
Length of Visible Light 14h 09m
Length of Day
13h 10m
Tomorrow will be 2m 57s shorter.
First Quarter, 51% of the Moon is Illuminated
Today
First Quarter
Sep 8
Full
Sep 15
Last Quarter
Sep 24
New
Oct 1
First Quarter

Today's Extremes

State Highs State Lows

Community

WunderPhotos

Upload Photos

1,749,670 photos uploaded!

WunderBlogs® & News

Nearby

Snow Depth

Station Depth Elevation
Banner Summit 0 in 7040 ft
Mill Creek Summit 1 in 8800 ft
Galena 1 in 7440 ft
Galena Summit 0 in 8780 ft
Jackson Peak 1 in 7070 ft

Earthquake Activity

City Distance Mag. Time & Date
No recent earthquake activity has been reported nearby.
Minimum magnitude displayed is 2.5.

Coastal Water Temperatures

Place Temperature
No Stations Reporting

Nearby Weather Stations